Time;durP1;ratioP1;P1;durP2;ratioP2;P2;SDS_P1;SDS_P2;PMS_P1;PMS_P2;Temp;Humidity;BMP_temperature;BMP_pressure;BME280_temperature;BME280_humidity;BME280_pressure;Samples;Min_cycle;Max_cycle;Signal;HPM_P1;HPM_P2
2022/01/22 00:01:00;;;;;;;14.80;9.60;;;4.00;99.90;;;;;;628244;226;26591;-73
2022/01/22 00:03:27;;;;;;;13.90;8.43;;;4.00;99.90;;;;;;631787;225;26630;-73
2022/01/22 00:05:54;;;;;;;12.43;8.90;;;4.20;99.90;;;;;;631519;226;26589;-72
2022/01/22 00:08:22;;;;;;;12.70;9.13;;;4.10;99.90;;;;;;632236;225;27258;-72
2022/01/22 00:10:51;;;;;;;10.63;9.23;;;4.10;99.90;;;;;;626007;226;26551;-72
2022/01/22 00:15:59;;;;;;;12.23;8.93;;;4.40;99.90;;;;;;627577;226;26587;-73
2022/01/22 00:18:27;;;;;;;11.50;8.77;;;4.40;99.90;;;;;;628564;226;26631;-73
2022/01/22 00:20:55;;;;;;;14.70;9.83;;;4.40;99.90;;;;;;632667;225;26615;-73
2022/01/22 00:23:26;;;;;;;12.30;9.83;;;4.40;99.90;;;;;;628580;228;26783;-73
2022/01/22 00:25:50;;;;;;;12.40;10.03;;;4.30;99.90;;;;;;626458;224;26576;-73
2022/01/22 00:28:17;;;;;;;15.37;9.40;;;4.20;99.90;;;;;;629032;226;26854;-73
2022/01/22 00:30:44;;;;;;;14.27;9.63;;;4.30;99.90;;;;;;627424;227;26555;-73
2022/01/22 00:33:11;;;;;;;14.17;10.17;;;4.50;99.90;;;;;;630260;223;26830;-72
2022/01/22 00:35:38;;;;;;;11.17;9.67;;;4.30;99.90;;;;;;633257;226;26628;-72
2022/01/22 00:38:06;;;;;;;13.07;9.33;;;4.30;99.90;;;;;;631006;225;26598;-72
2022/01/22 00:40:34;;;;;;;12.50;9.23;;;4.40;99.90;;;;;;627619;225;26630;-73
2022/01/22 00:43:02;;;;;;;14.83;9.97;;;4.30;99.90;;;;;;630510;226;26539;-73
2022/01/22 00:45:29;;;;;;;12.37;9.23;;;4.20;99.90;;;;;;631437;225;26582;-72
2022/01/22 00:47:56;;;;;;;14.47;10.53;;;4.20;99.90;;;;;;625692;230;26609;-73
2022/01/22 00:50:23;;;;;;;13.93;10.30;;;4.20;99.90;;;;;;630175;226;26841;-72
2022/01/22 00:52:50;;;;;;;13.23;9.90;;;4.30;99.90;;;;;;630669;226;26589;-72
2022/01/22 00:55:18;;;;;;;13.97;10.10;;;4.20;99.90;;;;;;629651;226;26810;-72
2022/01/22 00:57:45;;;;;;;12.63;9.70;;;4.20;99.90;;;;;;634687;226;26538;-72
2022/01/22 01:00:12;;;;;;;16.53;10.73;;;4.30;99.90;;;;;;631441;225;26937;-72
2022/01/22 01:02:39;;;;;;;15.53;10.13;;;4.40;99.90;;;;;;627083;226;26882;-73
2022/01/22 01:05:07;;;;;;;14.67;10.67;;;4.40;99.90;;;;;;627796;228;26600;-72
2022/01/22 01:07:34;;;;;;;12.57;9.97;;;4.50;99.90;;;;;;631227;226;26923;-73
2022/01/22 01:10:01;;;;;;;12.83;9.70;;;4.40;99.90;;;;;;629654;226;26599;-72
2022/01/22 01:12:29;;;;;;;13.87;9.70;;;4.60;99.90;;;;;;632641;225;26844;-72
2022/01/22 01:18:04;;;;;;;14.27;10.37;;;4.60;99.90;;;;;;630141;226;26591;-73
2022/01/22 01:35:19;;;;;;;9.13;8.13;;;4.80;99.90;;;;;;629630;226;26560;-73
2022/01/22 01:37:48;;;;;;;10.93;7.70;;;4.90;99.90;;;;;;625260;226;26563;-73
2022/01/22 01:40:18;;;;;;;10.83;8.23;;;4.90;99.90;;;;;;632989;224;26605;-73
2022/01/22 01:42:49;;;;;;;8.97;8.07;;;4.90;99.90;;;;;;630306;225;26623;-73
2022/01/22 01:45:09;;;;;;;8.50;7.60;;;5.10;99.90;;;;;;628726;225;26838;-73
2022/01/22 01:47:38;;;;;;;9.40;8.33;;;5.00;99.90;;;;;;627416;228;26598;-73
2022/01/22 01:50:04;;;;;;;7.33;6.57;;;5.00;99.90;;;;;;627742;225;26570;-73
2022/01/22 01:52:45;;;;;;;9.50;7.57;;;5.00;99.90;;;;;;633506;223;26798;-73
2022/01/22 01:55:13;;;;;;;8.43;7.53;;;5.10;99.90;;;;;;626985;227;26907;-73
2022/01/22 01:57:40;;;;;;;9.37;8.37;;;5.10;99.90;;;;;;627137;227;26574;-73
2022/01/22 02:00:07;;;;;;;7.93;7.13;;;4.90;99.90;;;;;;628376;226;26563;-73
2022/01/22 02:02:35;;;;;;;7.53;6.73;;;5.00;99.90;;;;;;630381;225;26586;-73
2022/01/22 02:05:01;;;;;;;7.33;6.10;;;5.00;99.90;;;;;;637156;225;26606;-73
2022/01/22 02:07:29;;;;;;;8.67;7.77;;;5.10;99.90;;;;;;629863;225;26615;-73
2022/01/22 02:09:58;;;;;;;7.30;6.53;;;5.00;99.90;;;;;;627317;228;26607;-73
2022/01/22 02:13:36;;;;;;;7.30;6.60;;;5.00;99.90;;;;;;635629;225;26892;-73
2022/01/22 02:25:27;;;;;;;7.80;7.10;;;4.80;99.90;;;;;;629525;225;26823;-74
2022/01/22 02:27:55;;;;;;;8.67;7.40;;;5.00;99.90;;;;;;628185;225;26597;-73
2022/01/22 02:30:27;;;;;;;7.73;6.93;;;5.00;99.90;;;;;;629346;225;26604;-73
2022/01/22 02:33:10;;;;;;;7.37;6.57;;;4.90;99.90;;;;;;628319;223;26787;-73
2022/01/22 02:35:33;;;;;;;8.60;7.40;;;5.00;99.90;;;;;;628783;225;26597;-73
2022/01/22 02:38:05;;;;;;;9.13;7.93;;;4.90;99.90;;;;;;628186;225;26603;-73
2022/01/22 02:40:29;;;;;;;8.97;8.07;;;5.00;99.90;;;;;;606052;234;26662;-73
2022/01/22 02:42:53;;;;;;;8.33;7.53;;;4.80;99.90;;;;;;611701;234;26664;-73
2022/01/22 02:45:23;;;;;;;9.37;8.40;;;4.70;99.90;;;;;;621828;230;26817;-73
2022/01/22 02:47:48;;;;;;;9.33;8.17;;;4.80;99.90;;;;;;622496;229;26568;-73
2022/01/22 02:50:17;;;;;;;9.30;7.93;;;4.80;99.90;;;;;;604166;237;26565;-73
2022/01/22 02:52:44;;;;;;;9.20;7.87;;;4.80;99.90;;;;;;616846;231;26983;-73
2022/01/22 02:55:12;;;;;;;8.87;7.00;;;5.10;99.90;;;;;;617210;230;26604;-73
2022/01/22 02:57:38;;;;;;;8.97;7.17;;;5.00;99.90;;;;;;616702;230;27209;-73
2022/01/22 03:00:07;;;;;;;7.27;6.40;;;4.70;99.90;;;;;;605787;234;26647;-73
2022/01/22 03:02:34;;;;;;;7.10;6.40;;;4.60;99.90;;;;;;629748;225;26631;-73
2022/01/22 03:05:01;;;;;;;7.43;6.63;;;4.80;99.90;;;;;;629170;225;26852;-73
2022/01/22 03:07:29;;;;;;;7.77;6.47;;;5.00;99.90;;;;;;629180;225;26585;-73
2022/01/22 03:10:01;;;;;;;6.17;5.60;;;5.00;99.90;;;;;;628183;225;26578;-73
2022/01/22 03:12:51;;;;;;;6.63;6.03;;;5.00;99.90;;;;;;628719;223;26923;-73
2022/01/22 03:15:32;;;;;;;5.43;4.80;;;4.90;99.90;;;;;;629777;225;26596;-73
2022/01/22 03:20:38;;;;;;;5.47;4.07;;;4.90;99.90;;;;;;629937;225;26592;-73
2022/01/22 03:23:06;;;;;;;4.53;4.13;;;5.00;99.90;;;;;;627582;225;26884;-73
2022/01/22 03:27:53;;;;;;;4.27;3.87;;;4.80;99.90;;;;;;625937;226;26582;-74
2022/01/22 03:30:21;;;;;;;6.50;4.47;;;4.80;99.90;;;;;;628351;225;26620;-73
2022/01/22 03:32:51;;;;;;;5.33;4.83;;;4.50;99.90;;;;;;625365;227;26778;-73
2022/01/22 03:35:27;;;;;;;5.97;5.23;;;4.50;99.90;;;;;;625277;227;26581;-74
2022/01/22 03:37:55;;;;;;;5.30;4.80;;;4.10;99.90;;;;;;635320;225;27193;-73
2022/01/22 03:40:22;;;;;;;8.97;5.97;;;3.80;99.90;;;;;;628226;226;26524;-73
2022/01/22 03:42:50;;;;;;;7.20;5.27;;;3.90;99.90;;;;;;627477;229;26571;-73
2022/01/22 03:45:17;;;;;;;8.20;6.30;;;3.90;99.90;;;;;;626033;228;26566;-73
2022/01/22 03:47:45;;;;;;;10.07;5.63;;;3.90;99.90;;;;;;635589;225;26535;-74
2022/01/22 03:50:12;;;;;;;5.83;5.23;;;3.90;99.90;;;;;;635518;225;26765;-73
2022/01/22 03:52:39;;;;;;;7.07;5.63;;;3.70;99.90;;;;;;634969;226;26579;-76
2022/01/22 03:55:08;;;;;;;7.30;6.07;;;3.60;99.90;;;;;;627791;226;26952;-76
2022/01/22 03:57:34;;;;;;;8.73;5.87;;;3.60;99.90;;;;;;625962;228;26591;-74
2022/01/22 04:00:02;;;;;;;7.70;5.87;;;3.50;99.90;;;;;;625731;228;26968;-74
2022/01/22 04:03:03;;;;;;;7.43;5.70;;;3.70;99.90;;;;;;627374;223;26575;-74
2022/01/22 04:05:03;;;;;;;6.00;5.40;;;3.50;99.90;;;;;;625907;228;26612;-74
2022/01/22 04:08:02;;;;;;;6.00;5.40;;;3.40;99.90;;;;;;631866;226;26811;-74
2022/01/22 04:10:02;;;;;;;8.53;5.27;;;3.50;99.90;;;;;;628063;225;26605;-74
2022/01/22 04:12:41;;;;;;;6.57;5.20;;;3.40;99.90;;;;;;628445;226;26609;-74
2022/01/22 04:15:01;;;;;;;7.47;5.53;;;3.40;99.90;;;;;;626680;226;26800;-74
2022/01/22 04:24:49;;;;;;;7.47;5.07;;;3.50;99.90;;;;;;629886;225;26604;-74
2022/01/22 04:24:58;;;;;;;8.13;4.90;;;3.60;99.90;;;;;;629912;224;26611;-74
2022/01/22 04:27:27;;;;;;;8.53;5.47;;;3.80;99.90;;;;;;630315;226;26602;-74
2022/01/22 04:29:57;;;;;;;11.20;5.80;;;3.80;99.90;;;;;;628087;223;26926;-74
2022/01/22 04:32:21;;;;;;;6.20;5.40;;;3.80;99.90;;;;;;629775;225;26617;-74
2022/01/22 04:34:49;;;;;;;8.40;5.73;;;3.90;99.90;;;;;;629923;225;26611;-74
2022/01/22 04:37:18;;;;;;;6.60;4.73;;;4.00;99.90;;;;;;625672;228;26590;-74
2022/01/22 04:39:45;;;;;;;7.27;5.37;;;4.00;99.90;;;;;;637977;225;26529;-74
2022/01/22 04:42:12;;;;;;;6.40;4.63;;;4.20;99.90;;;;;;631821;226;26604;-74
2022/01/22 04:44:50;;;;;;;6.07;4.90;;;4.30;99.90;;;;;;631303;226;26553;-74
2022/01/22 04:47:26;;;;;;;7.07;5.23;;;4.20;99.90;;;;;;627409;226;26811;-74
2022/01/22 04:52:33;;;;;;;6.67;4.50;;;4.50;99.90;;;;;;626717;229;26994;-74
2022/01/22 04:55:02;;;;;;;6.43;4.43;;;4.30;99.90;;;;;;626552;229;26560;-73
2022/01/22 04:57:31;;;;;;;7.07;4.53;;;4.00;99.90;;;;;;628411;229;27207;-73
2022/01/22 04:59:58;;;;;;;9.03;5.00;;;3.90;99.90;;;;;;626223;227;26596;-74
2022/01/22 05:02:26;;;;;;;6.73;4.40;;;4.00;99.90;;;;;;628652;226;26607;-74
2022/01/22 05:04:53;;;;;;;8.30;4.80;;;4.00;99.90;;;;;;626478;228;26635;-74
2022/01/22 05:07:20;;;;;;;7.57;4.67;;;3.90;99.90;;;;;;628025;228;26596;-74
2022/01/22 05:09:47;;;;;;;6.20;4.67;;;4.10;99.90;;;;;;627314;226;26883;-73
2022/01/22 05:12:15;;;;;;;4.67;4.23;;;3.90;99.90;;;;;;631309;226;26606;-74
2022/01/22 05:14:43;;;;;;;4.40;4.00;;;3.90;99.90;;;;;;631926;224;26813;-74
2022/01/22 05:17:10;;;;;;;6.83;4.27;;;4.10;99.90;;;;;;631425;225;26558;-74
2022/01/22 05:19:49;;;;;;;5.57;4.63;;;4.10;99.90;;;;;;626533;227;26609;-74
2022/01/22 05:22:17;;;;;;;4.93;4.43;;;4.10;99.90;;;;;;625535;229;26561;-74
2022/01/22 05:24:38;;;;;;;5.20;4.70;;;3.90;99.90;;;;;;625243;229;26583;-74
2022/01/22 05:30:02;;;;;;;8.07;4.33;;;3.80;99.90;;;;;;624561;225;26827;-73
2022/01/22 05:32:27;;;;;;;7.73;4.53;;;3.70;99.90;;;;;;627699;226;26793;-74
2022/01/22 05:37:16;;;;;;;10.70;4.97;;;3.40;99.90;;;;;;630181;226;26614;-73
2022/01/22 05:39:43;;;;;;;9.27;4.53;;;3.60;99.90;;;;;;628460;228;26494;-74
2022/01/22 05:42:11;;;;;;;7.00;4.50;;;3.50;99.90;;;;;;625714;226;26615;-74
2022/01/22 05:44:39;;;;;;;8.27;4.50;;;3.50;99.90;;;;;;625717;225;26832;-74
2022/01/22 05:47:06;;;;;;;8.53;4.37;;;3.50;99.90;;;;;;628229;227;26587;-74
2022/01/22 05:49:36;;;;;;;5.83;4.10;;;3.30;99.90;;;;;;629593;226;26530;-74
2022/01/22 05:52:03;;;;;;;5.43;4.10;;;3.30;99.90;;;;;;633106;226;26910;-74
2022/01/22 05:55:24;;;;;;;6.50;4.87;;;3.20;99.90;;;;;;626914;229;26607;-74
2022/01/22 05:59:44;;;;;;;6.97;4.50;;;3.20;99.90;;;;;;637956;225;26593;-74
2022/01/22 06:02:12;;;;;;;5.30;4.70;;;3.30;99.90;;;;;;635176;226;26604;-74
2022/01/22 06:04:40;;;;;;;5.30;4.80;;;3.30;99.90;;;;;;636637;225;27285;-74
2022/01/22 06:07:07;;;;;;;8.30;5.60;;;3.30;99.90;;;;;;628285;225;26620;-74
2022/01/22 06:09:38;;;;;;;6.37;5.30;;;3.20;99.90;;;;;;628041;228;26628;-73
2022/01/22 06:12:15;;;;;;;8.87;5.07;;;3.20;99.90;;;;;;628162;226;26898;-73
2022/01/22 06:14:31;;;;;;;8.73;5.27;;;3.30;99.90;;;;;;634194;226;26576;-74
2022/01/22 06:16:58;;;;;;;9.80;5.60;;;3.20;99.90;;;;;;635030;226;26615;-73
2022/01/22 06:19:26;;;;;;;9.40;5.50;;;3.00;99.90;;;;;;634377;226;26551;-73
2022/01/22 06:21:53;;;;;;;9.70;5.53;;;3.00;99.90;;;;;;626042;223;26575;-73
2022/01/22 06:24:20;;;;;;;8.60;5.53;;;3.20;99.90;;;;;;627244;228;26606;-74
2022/01/22 06:26:47;;;;;;;9.00;6.30;;;3.40;99.90;;;;;;626566;228;26856;-74
2022/01/22 06:29:14;;;;;;;11.03;6.07;;;3.40;99.90;;;;;;629346;228;26539;-73
2022/01/22 06:31:42;;;;;;;7.50;5.17;;;3.40;99.90;;;;;;626243;227;26561;-74
2022/01/22 06:34:10;;;;;;;8.43;5.73;;;3.40;99.90;;;;;;627418;226;26534;-74
2022/01/22 06:36:37;;;;;;;6.07;5.47;;;3.40;99.90;;;;;;627402;228;26611;-74
2022/01/22 06:39:12;;;;;;;9.40;5.47;;;3.50;99.90;;;;;;625967;223;26584;-74
2022/01/22 06:44:09;;;;;;;6.87;5.20;;;3.30;99.90;;;;;;632123;226;26832;-74
2022/01/22 06:46:36;;;;;;;8.07;6.00;;;3.30;99.90;;;;;;625619;229;26945;-74
2022/01/22 06:49:04;;;;;;;8.87;5.00;;;3.50;99.90;;;;;;628033;228;26598;-74
2022/01/22 06:51:33;;;;;;;10.50;5.70;;;3.40;99.90;;;;;;625823;228;26594;-74
2022/01/22 06:53:59;;;;;;;10.50;5.47;;;3.40;99.90;;;;;;628391;226;26605;-74
2022/01/22 06:56:29;;;;;;;8.83;5.43;;;3.20;99.90;;;;;;632333;226;26599;-74
2022/01/22 06:58:54;;;;;;;6.43;4.80;;;3.20;99.90;;;;;;626814;228;26886;-74
2022/01/22 07:01:21;;;;;;;5.77;4.73;;;3.10;99.90;;;;;;628241;228;26558;-73
2022/01/22 07:03:49;;;;;;;13.97;6.33;;;2.90;99.90;;;;;;626053;229;26576;-74
2022/01/22 07:06:16;;;;;;;7.80;5.60;;;2.90;99.90;;;;;;628659;228;26592;-73
2022/01/22 07:08:44;;;;;;;8.73;5.53;;;3.30;99.90;;;;;;628628;228;26604;-74
2022/01/22 07:11:11;;;;;;;9.43;5.30;;;3.30;99.90;;;;;;626073;228;26810;-76
2022/01/22 07:13:38;;;;;;;6.37;4.90;;;3.20;99.90;;;;;;625755;228;26557;-73
2022/01/22 07:16:06;;;;;;;9.17;5.00;;;3.30;99.90;;;;;;627464;228;27228;-73
2022/01/22 07:18:33;;;;;;;9.63;5.27;;;3.30;99.90;;;;;;625303;228;26539;-73
2022/01/22 07:21:13;;;;;;;7.93;5.43;;;3.40;99.90;;;;;;632238;226;26604;-73
2022/01/22 07:26:15;;;;;;;10.27;5.47;;;3.60;99.90;;;;;;627042;225;26644;-73
2022/01/22 07:28:43;;;;;;;9.07;5.10;;;3.50;99.90;;;;;;630574;225;26618;-73
2022/01/22 07:31:10;;;;;;;12.27;5.47;;;3.50;99.90;;;;;;627985;226;26655;-73
2022/01/22 07:33:38;;;;;;;6.33;5.13;;;3.60;99.90;;;;;;633520;226;26886;-73
2022/01/22 07:36:05;;;;;;;7.83;4.70;;;4.00;99.90;;;;;;628590;226;26864;-73
2022/01/22 07:38:37;;;;;;;11.40;5.07;;;3.90;99.90;;;;;;631560;224;26586;-73
2022/01/22 07:40:59;;;;;;;11.57;5.93;;;4.00;99.90;;;;;;635001;225;26869;-73
2022/01/22 07:43:27;;;;;;;9.67;5.30;;;4.00;99.90;;;;;;635984;225;26604;-73
2022/01/22 07:45:55;;;;;;;7.60;5.00;;;4.10;99.90;;;;;;628752;228;26587;-73
2022/01/22 07:48:22;;;;;;;7.80;5.47;;;4.10;99.90;;;;;;627422;228;26592;-73
2022/01/22 07:50:49;;;;;;;9.17;5.70;;;3.70;99.90;;;;;;627139;228;26562;-73
2022/01/22 07:53:17;;;;;;;8.50;5.70;;;3.50;99.90;;;;;;628637;228;26823;-73
2022/01/22 07:55:44;;;;;;;8.70;5.67;;;3.50;99.90;;;;;;636607;225;26598;-73
2022/01/22 07:58:11;;;;;;;8.80;5.70;;;3.50;99.90;;;;;;626847;228;26607;-73
2022/01/22 08:00:39;;;;;;;9.70;6.17;;;3.20;99.90;;;;;;627014;228;26606;-73
2022/01/22 08:03:08;;;;;;;8.60;5.80;;;3.20;99.90;;;;;;625679;228;26620;-73
2022/01/22 08:05:33;;;;;;;9.33;6.87;;;3.40;99.90;;;;;;633968;226;26595;-73
2022/01/22 08:08:01;;;;;;;8.73;6.20;;;3.40;99.90;;;;;;627953;226;26812;-73
2022/01/22 08:10:28;;;;;;;10.00;8.10;;;3.50;99.90;;;;;;630275;226;26600;-73
2022/01/22 08:12:55;;;;;;;10.97;7.77;;;3.70;99.90;;;;;;628815;226;26625;-73
2022/01/22 08:15:23;;;;;;;10.17;7.10;;;3.70;99.90;;;;;;625241;227;26573;-73
2022/01/22 08:17:51;;;;;;;8.97;6.60;;;3.30;99.90;;;;;;625319;228;26538;-73
2022/01/22 08:20:20;;;;;;;20.37;12.73;;;3.30;99.90;;;;;;628202;225;26894;-73
2022/01/22 08:22:46;;;;;;;8.40;5.77;;;3.30;99.90;;;;;;630568;225;26804;-73
2022/01/22 08:25:14;;;;;;;10.73;5.93;;;3.50;99.90;;;;;;630294;225;26583;-73
2022/01/22 08:28:52;;;;;;;9.60;6.00;;;3.70;99.90;;;;;;627955;223;26598;-73
2022/01/22 08:30:14;;;;;;;10.47;5.90;;;3.50;99.90;;;;;;629025;225;26605;-73
2022/01/22 08:37:45;;;;;;;10.83;5.63;;;3.50;99.90;;;;;;628956;226;26551;-72
2022/01/22 08:40:12;;;;;;;6.73;5.40;;;3.60;99.90;;;;;;630432;225;26593;-72
2022/01/22 08:42:39;;;;;;;8.87;4.63;;;3.50;99.90;;;;;;625738;226;26600;-72
2022/01/22 08:45:07;;;;;;;10.00;5.03;;;4.00;99.90;;;;;;627778;229;26797;-72
2022/01/22 08:47:34;;;;;;;10.30;5.77;;;4.00;99.90;;;;;;629275;226;26590;-72
2022/01/22 08:50:01;;;;;;;7.83;4.90;;;4.40;99.90;;;;;;634504;221;26615;-72
2022/01/22 08:52:32;;;;;;;10.40;5.70;;;4.70;99.90;;;;;;628276;228;26956;-72
2022/01/22 08:54:55;;;;;;;6.20;5.60;;;4.80;99.90;;;;;;627377;225;26820;-72
2022/01/22 08:57:23;;;;;;;7.93;5.07;;;4.80;99.90;;;;;;632435;226;26632;-72
2022/01/22 08:59:51;;;;;;;8.87;5.07;;;4.20;99.90;;;;;;635664;226;26591;-72
2022/01/22 09:02:18;;;;;;;5.60;4.30;;;4.40;99.90;;;;;;630370;226;26562;-72
2022/01/22 09:04:46;;;;;;;4.97;4.47;;;4.40;99.90;;;;;;633758;226;26804;-72
2022/01/22 09:07:14;;;;;;;7.67;4.40;;;4.50;99.90;;;;;;628126;225;26597;-72
2022/01/22 09:09:42;;;;;;;6.67;4.83;;;4.80;99.90;;;;;;627051;225;26593;-75
2022/01/22 09:12:10;;;;;;;8.27;4.50;;;5.20;99.90;;;;;;630002;226;26580;-75
2022/01/22 09:14:38;;;;;;;6.37;4.67;;;5.30;99.90;;;;;;627875;226;27607;-76
2022/01/22 09:17:05;;;;;;;6.27;4.37;;;5.30;99.90;;;;;;626503;228;27245;-74
2022/01/22 09:19:34;;;;;;;6.73;4.60;;;4.80;99.90;;;;;;630981;225;26576;-75
2022/01/22 09:22:01;;;;;;;4.30;3.90;;;4.80;99.90;;;;;;631833;225;26598;-75
2022/01/22 09:24:29;;;;;;;6.07;4.20;;;4.80;99.90;;;;;;632888;225;26556;-74
2022/01/22 09:26:59;;;;;;;5.37;3.90;;;4.90;99.90;;;;;;628816;226;26857;-74
2022/01/22 09:29:25;;;;;;;5.90;4.20;;;5.10;99.90;;;;;;630734;225;26586;-75
2022/01/22 09:31:53;;;;;;;6.20;4.40;;;5.10;99.90;;;;;;630090;225;26605;-75
2022/01/22 09:34:20;;;;;;;6.23;3.80;;;5.10;99.90;;;;;;629354;225;26948;-75
2022/01/22 09:36:47;;;;;;;4.53;4.13;;;4.70;99.90;;;;;;631201;225;26593;-74
2022/01/22 09:39:15;;;;;;;5.63;4.30;;;4.50;99.90;;;;;;627450;226;27280;-74
2022/01/22 09:41:43;;;;;;;7.13;4.70;;;4.90;99.90;;;;;;629495;223;26654;-74
2022/01/22 09:44:12;;;;;;;6.73;3.70;;;5.40;99.90;;;;;;630057;225;26632;-74
2022/01/22 09:46:40;;;;;;;5.00;3.33;;;5.40;99.90;;;;;;631841;225;26627;-74
2022/01/22 09:49:06;;;;;;;3.80;3.50;;;5.50;99.90;;;;;;629732;222;26591;-74
2022/01/22 09:51:33;;;;;;;4.40;2.93;;;5.50;99.90;;;;;;631362;225;26625;-74
2022/01/22 09:54:01;;;;;;;3.43;3.13;;;5.10;99.90;;;;;;627270;226;26646;-74
2022/01/22 09:56:31;;;;;;;6.43;3.00;;;5.10;99.90;;;;;;630054;225;26628;-75
2022/01/22 09:58:58;;;;;;;4.17;3.20;;;5.10;99.90;;;;;;627789;229;26590;-74
2022/01/22 10:01:24;;;;;;;8.17;3.70;;;5.40;99.90;;;;;;630326;225;26868;-74
2022/01/22 10:03:51;;;;;;;8.57;3.70;;;5.50;99.90;;;;;;633262;225;26599;-76
2022/01/22 10:06:19;;;;;;;4.93;3.50;;;5.50;99.90;;;;;;631705;225;26858;-74
2022/01/22 10:08:47;;;;;;;7.00;4.10;;;5.60;99.90;;;;;;630181;225;26559;-74
2022/01/22 10:11:15;;;;;;;4.57;3.90;;;5.50;99.90;;;;;;632137;225;26842;-74
2022/01/22 10:13:45;;;;;;;11.73;4.67;;;5.40;99.90;;;;;;629005;225;26606;-74
2022/01/22 10:16:15;;;;;;;7.87;4.37;;;5.70;99.90;;;;;;630213;225;26621;-74
2022/01/22 10:18:42;;;;;;;9.07;4.27;;;5.90;99.90;;;;;;628701;225;26604;-74
2022/01/22 10:21:10;;;;;;;5.53;3.80;;;5.40;99.90;;;;;;628198;225;26561;-74
2022/01/22 10:23:39;;;;;;;6.77;3.77;;;5.30;99.90;;;;;;632396;225;26616;-74
2022/01/22 10:26:06;;;;;;;6.17;4.47;;;5.10;99.90;;;;;;633824;225;27341;-74
2022/01/22 10:28:38;;;;;;;6.43;4.23;;;5.00;99.90;;;;;;629414;226;26591;-74
2022/01/22 10:31:09;;;;;;;9.10;4.07;;;5.10;99.90;;;;;;630630;225;26603;-74
2022/01/22 10:33:35;;;;;;;7.27;4.00;;;5.50;99.90;;;;;;627149;228;27186;-74
2022/01/22 10:36:09;;;;;;;6.33;3.53;;;5.50;99.90;;;;;;629388;226;26614;-76
2022/01/22 10:38:38;;;;;;;7.13;4.27;;;5.80;99.90;;;;;;627407;226;26647;-75
2022/01/22 10:41:07;;;;;;;10.10;4.47;;;6.00;99.90;;;;;;628148;226;28242;-76
2022/01/22 10:43:34;;;;;;;6.40;3.50;;;6.50;99.90;;;;;;632345;225;26583;-73
2022/01/22 10:46:02;;;;;;;4.10;3.40;;;6.20;99.90;;;;;;634442;225;26587;-74
2022/01/22 10:48:27;;;;;;;3.70;3.07;;;6.00;99.90;;;;;;636271;225;26773;-74
2022/01/22 10:51:06;;;;;;;3.23;2.93;;;5.80;99.90;;;;;;632082;226;26603;-74
2022/01/22 10:53:41;;;;;;;6.93;3.40;;;5.80;99.90;;;;;;625136;225;26855;-74
2022/01/22 10:56:06;;;;;;;7.30;3.30;;;5.90;99.90;;;;;;625494;225;26602;-75
2022/01/22 10:58:34;;;;;;;4.43;3.17;;;5.80;99.90;;;;;;627713;228;26643;-75
2022/01/22 11:01:01;;;;;;;4.00;2.93;;;5.50;99.90;;;;;;627886;225;26833;-75
2022/01/22 11:03:28;;;;;;;5.80;3.23;;;5.60;99.90;;;;;;633504;225;27222;-74
2022/01/22 11:05:59;;;;;;;4.47;3.30;;;5.80;99.90;;;;;;628256;228;26586;-74
2022/01/22 11:08:25;;;;;;;3.67;3.23;;;6.20;99.90;;;;;;633530;226;26841;-75
2022/01/22 11:10:52;;;;;;;6.03;3.30;;;6.50;99.90;;;;;;635916;225;26827;-75
2022/01/22 11:13:19;;;;;;;5.90;2.90;;;7.00;99.90;;;;;;633049;226;26588;-74
2022/01/22 11:15:46;;;;;;;5.97;3.10;;;6.90;99.90;;;;;;637918;225;26533;-74
2022/01/22 11:18:14;;;;;;;6.23;3.00;;;7.20;99.90;;;;;;631823;225;26587;-75
2022/01/22 11:20:41;;;;;;;3.83;3.03;;;7.20;99.90;;;;;;627354;225;26577;-75
2022/01/22 11:23:09;;;;;;;6.20;3.00;;;6.70;99.90;;;;;;633820;226;26841;-75
2022/01/22 11:25:36;;;;;;;3.17;2.67;;;6.70;99.90;;;;;;627573;228;26792;-75
2022/01/22 11:28:03;;;;;;;3.40;2.90;;;6.60;99.90;;;;;;625971;228;26576;-75
2022/01/22 11:30:30;;;;;;;2.70;2.50;;;7.00;99.90;;;;;;634128;226;26831;-74
2022/01/22 11:32:58;;;;;;;4.63;2.80;;;7.10;99.90;;;;;;633279;226;26587;-75
2022/01/22 11:35:28;;;;;;;4.17;2.93;;;7.00;99.90;;;;;;626924;228;26594;-75
2022/01/22 11:37:56;;;;;;;4.63;2.87;;;7.00;99.90;;;;;;632645;226;26596;-75
2022/01/22 11:40:24;;;;;;;4.90;2.90;;;7.20;99.90;;;;;;635531;226;26629;-75
2022/01/22 11:42:57;;;;;;;4.60;2.87;;;7.20;99.90;;;;;;633655;226;26560;-75
2022/01/22 11:45:27;;;;;;;5.03;3.10;;;7.40;99.90;;;;;;625483;226;26582;-74
2022/01/22 11:48:04;;;;;;;6.97;3.20;;;7.40;99.90;;;;;;625492;227;26604;-74
2022/01/22 11:50:31;;;;;;;5.13;2.60;;;7.40;99.90;;;;;;625372;229;26560;-74
2022/01/22 11:52:58;;;;;;;4.40;2.67;;;7.30;99.90;;;;;;628666;228;26571;-74
2022/01/22 11:55:26;;;;;;;4.80;2.87;;;7.10;99.90;;;;;;626745;229;26583;-75
2022/01/22 11:57:54;;;;;;;3.30;3.00;;;7.10;99.90;;;;;;626636;228;26607;-75
2022/01/22 12:00:23;;;;;;;4.50;2.73;;;7.40;99.90;;;;;;634502;225;26536;-74
2022/01/22 12:03:12;;;;;;;3.70;3.00;;;7.60;99.90;;;;;;633984;225;26590;-75
2022/01/22 12:06:08;;;;;;;7.07;3.37;;;7.60;99.90;;;;;;630492;222;26624;-75
2022/01/22 12:08:50;;;;;;;5.13;3.10;;;7.60;99.90;;;;;;625787;225;26813;-74
2022/01/22 12:14:36;;;;;;;4.13;2.43;;;7.70;99.90;;;;;;628858;229;27200;-74
2022/01/22 12:17:04;;;;;;;4.37;3.13;;;7.40;99.90;;;;;;626211;229;26536;-74
2022/01/22 12:19:52;;;;;;;4.40;2.80;;;6.90;99.90;;;;;;627141;229;26651;-74
2022/01/22 12:22:22;;;;;;;4.80;3.03;;;6.60;99.90;;;;;;625100;230;26832;-74
2022/01/22 12:24:50;;;;;;;3.20;2.63;;;5.20;99.90;;;;;;637061;223;26642;-74
2022/01/22 12:27:29;;;;;;;6.17;3.20;;;5.20;99.90;;;;;;628659;228;26879;-75
2022/01/22 12:29:59;;;;;;;3.13;2.80;;;5.50;99.90;;;;;;632199;226;27279;-75
2022/01/22 12:32:33;;;;;;;2.97;2.63;;;5.30;99.90;;;;;;630578;226;26562;-75
2022/01/22 12:34:53;;;;;;;3.70;2.73;;;5.20;99.90;;;;;;625999;228;26591;-75
2022/01/22 12:37:22;;;;;;;5.53;2.60;;;5.50;99.90;;;;;;632641;225;26603;-75
2022/01/22 12:39:52;;;;;;;3.07;2.77;;;5.50;99.90;;;;;;636615;225;26586;-75
2022/01/22 12:42:26;;;;;;;3.30;3.00;;;5.50;99.90;;;;;;630430;226;26610;-75
2022/01/22 12:44:54;;;;;;;7.00;2.93;;;5.40;99.90;;;;;;633449;226;26865;-75
2022/01/22 12:47:11;;;;;;;3.83;2.60;;;5.30;99.90;;;;;;628000;227;26610;-75
2022/01/22 12:49:39;;;;;;;2.30;2.10;;;5.20;99.90;;;;;;628889;228;26821;-75
2022/01/22 12:52:07;;;;;;;2.50;2.40;;;5.20;99.90;;;;;;627152;228;26581;-75
2022/01/22 12:54:38;;;;;;;2.97;2.77;;;5.40;99.90;;;;;;634222;226;26789;-75
2022/01/22 12:57:07;;;;;;;3.67;2.70;;;6.00;99.10;;;;;;627000;223;26547;-75
2022/01/22 12:59:46;;;;;;;2.87;2.47;;;5.90;99.10;;;;;;628578;227;26591;-75
2022/01/22 13:02:14;;;;;;;6.57;2.73;;;6.00;98.30;;;;;;635365;225;26607;-75
2022/01/22 13:04:42;;;;;;;3.73;2.60;;;5.60;98.90;;;;;;629906;225;26579;-75
2022/01/22 13:07:12;;;;;;;5.07;2.40;;;5.60;98.90;;;;;;631079;226;26827;-75
2022/01/22 13:09:43;;;;;;;3.53;2.50;;;5.30;97.30;;;;;;625158;228;26607;-75
2022/01/22 13:12:10;;;;;;;4.63;3.00;;;4.80;99.10;;;;;;627528;225;26616;-75
2022/01/22 13:14:38;;;;;;;3.63;3.07;;;4.70;99.90;;;;;;633647;226;26555;-75
2022/01/22 13:17:07;;;;;;;5.83;2.90;;;4.70;99.90;;;;;;626228;229;26785;-75
2022/01/22 13:19:32;;;;;;;4.43;3.37;;;5.20;99.90;;;;;;626593;226;26627;-75
2022/01/22 13:22:00;;;;;;;4.83;3.03;;;4.70;99.90;;;;;;627444;225;27281;-75
2022/01/22 13:24:28;;;;;;;5.73;3.73;;;4.70;99.90;;;;;;628496;228;26598;-75
2022/01/22 13:26:59;;;;;;;7.50;3.40;;;5.20;99.90;;;;;;627261;226;26544;-75
2022/01/22 13:29:24;;;;;;;7.37;3.77;;;5.20;99.90;;;;;;635849;225;26785;-75
2022/01/22 13:32:01;;;;;;;4.93;3.90;;;5.80;99.90;;;;;;636181;225;26556;-75
2022/01/22 13:34:39;;;;;;;5.30;3.43;;;6.10;99.90;;;;;;634946;226;26588;-75
2022/01/22 13:49:52;;;;;;;7.00;3.80;;;4.80;99.90;;;;;;627355;226;26599;-74
2022/01/22 13:52:19;;;;;;;10.27;4.37;;;4.80;99.90;;;;;;633526;226;26838;-75
2022/01/22 13:54:49;;;;;;;5.23;4.10;;;5.00;99.90;;;;;;628715;226;26602;-75
2022/01/22 13:57:16;;;;;;;6.63;3.57;;;5.00;99.90;;;;;;626779;228;26582;-75
2022/01/22 13:59:44;;;;;;;4.50;3.00;;;5.40;99.90;;;;;;628881;228;27389;-75
2022/01/22 14:02:28;;;;;;;6.63;3.57;;;5.60;99.90;;;;;;626415;228;26598;-75
2022/01/22 14:04:41;;;;;;;4.20;3.90;;;5.30;99.90;;;;;;625899;226;26629;-76
2022/01/22 14:07:15;;;;;;;4.47;3.37;;;5.30;99.90;;;;;;634976;226;26598;-75
2022/01/22 14:09:52;;;;;;;6.30;2.93;;;4.70;99.90;;;;;;630226;226;26606;-74
2022/01/22 14:12:20;;;;;;;6.83;3.90;;;4.50;99.90;;;;;;625345;228;26838;-75
2022/01/22 14:14:54;;;;;;;6.73;3.30;;;4.70;99.90;;;;;;625354;227;26545;-75
2022/01/22 14:17:24;;;;;;;4.20;3.10;;;4.70;99.90;;;;;;625341;226;26603;-75
2022/01/22 14:20:03;;;;;;;5.73;2.90;;;4.80;99.90;;;;;;628959;225;26590;-75